Richmond Heights, Ohio
Current Conditions -  °F | °C
As of 1:45 PM on Friday 28 Nov 2014 (Local Time) from KCGF Reporting Station
Broken Clouds Broken Clouds  
Wind Chill: 18°   Ceiling: 2100
Heat Index: 28°   Visibility: 7mi
Dew Point: 18°   Wind: 12mph
Humidity: 64%   Direction: 240°WSW
Pressure: 30.26"   Gusts: NA
Location:  41.5545°N, 81.4746°W
Report Text: KCGF 281845Z 24010KT 7SM BKN021 BKN100 M02/M08 A3026
Loading
Personal Weather Stations






























Interactive Weather Map New forecast layout! Learn more

10-Day Weather Forecast

Advertisements
Track Severe Weather on mobile